sensor_id;sensor_type;location;lat;lon;timestamp;temperature;humidity
13794;DHT22;31160;49.500;7.772;2023-04-07T00:00:23;8.00;99.90
13794;DHT22;31160;49.500;7.772;2023-04-07T00:02:50;7.90;99.90
13794;DHT22;31160;49.500;7.772;2023-04-07T00:05:17;8.00;99.90
13794;DHT22;31160;49.500;7.772;2023-04-07T00:07:44;8.00;99.90
13794;DHT22;31160;49.500;7.772;2023-04-07T00:10:23;8.10;99.90
13794;DHT22;31160;49.500;7.772;2023-04-07T00:12:51;8.10;99.90
13794;DHT22;31160;49.500;7.772;2023-04-07T00:15:17;8.20;99.90
13794;DHT22;31160;49.500;7.772;2023-04-07T00:17:44;8.10;99.90
13794;DHT22;31160;49.500;7.772;2023-04-07T00:20:11;8.00;99.90
13794;DHT22;31160;49.500;7.772;2023-04-07T00:22:38;8.00;99.90
13794;DHT22;31160;49.500;7.772;2023-04-07T00:25:05;8.10;99.90
13794;DHT22;31160;49.500;7.772;2023-04-07T00:27:32;8.00;99.90
13794;DHT22;31160;49.500;7.772;2023-04-07T00:29:59;8.00;99.90
13794;DHT22;31160;49.500;7.772;2023-04-07T00:32:25;8.10;99.90
13794;DHT22;31160;49.500;7.772;2023-04-07T00:34:52;8.00;99.90
13794;DHT22;31160;49.500;7.772;2023-04-07T00:37:19;8.00;99.90
13794;DHT22;31160;49.500;7.772;2023-04-07T00:39:45;8.00;99.90
13794;DHT22;31160;49.500;7.772;2023-04-07T00:42:12;8.00;99.90
13794;DHT22;31160;49.500;7.772;2023-04-07T00:44:39;7.90;99.90
13794;DHT22;31160;49.500;7.772;2023-04-07T00:47:07;7.90;99.90
13794;DHT22;31160;49.500;7.772;2023-04-07T00:49:33;8.00;99.90
13794;DHT22;31160;49.500;7.772;2023-04-07T00:52:03;7.90;99.90
13794;DHT22;31160;49.500;7.772;2023-04-07T00:54:30;7.90;99.90
13794;DHT22;31160;49.500;7.772;2023-04-07T00:56:57;7.80;99.90
13794;DHT22;31160;49.500;7.772;2023-04-07T00:59:24;7.80;99.90
13794;DHT22;31160;49.500;7.772;2023-04-07T01:01:57;7.70;99.90
13794;DHT22;31160;49.500;7.772;2023-04-07T01:04:40;7.70;99.90
13794;DHT22;31160;49.500;7.772;2023-04-07T01:07:15;7.80;99.90
13794;DHT22;31160;49.500;7.772;2023-04-07T01:09:58;7.70;99.90
13794;DHT22;31160;49.500;7.772;2023-04-07T01:14:59;7.70;99.90
13794;DHT22;31160;49.500;7.772;2023-04-07T01:17:42;7.80;99.90
13794;DHT22;31160;49.500;7.772;2023-04-07T01:20:14;7.80;99.90
13794;DHT22;31160;49.500;7.772;2023-04-07T01:22:45;7.60;99.90
13794;DHT22;31160;49.500;7.772;2023-04-07T01:25:25;7.40;99.90
13794;DHT22;31160;49.500;7.772;2023-04-07T01:30:39;7.30;99.90
13794;DHT22;31160;49.500;7.772;2023-04-07T01:33:08;7.40;99.90
13794;DHT22;31160;49.500;7.772;2023-04-07T01:35:36;7.40;99.90
13794;DHT22;31160;49.500;7.772;2023-04-07T01:38:04;7.40;99.90
13794;DHT22;31160;49.500;7.772;2023-04-07T01:40:32;7.40;99.90
13794;DHT22;31160;49.500;7.772;2023-04-07T01:43:00;7.50;99.90
13794;DHT22;31160;49.500;7.772;2023-04-07T01:45:28;7.50;99.90
13794;DHT22;31160;49.500;7.772;2023-04-07T01:47:56;7.50;99.90
13794;DHT22;31160;49.500;7.772;2023-04-07T01:50:24;7.50;99.90
13794;DHT22;31160;49.500;7.772;2023-04-07T01:52:52;7.40;99.90
13794;DHT22;31160;49.500;7.772;2023-04-07T01:55:19;7.30;99.90
13794;DHT22;31160;49.500;7.772;2023-04-07T01:57:54;7.30;99.90
13794;DHT22;31160;49.500;7.772;2023-04-07T02:00:22;7.30;99.90
13794;DHT22;31160;49.500;7.772;2023-04-07T02:02:57;7.30;99.90
13794;DHT22;31160;49.500;7.772;2023-04-07T02:05:27;7.30;99.90
13794;DHT22;31160;49.500;7.772;2023-04-07T02:07:59;7.30;99.90
13794;DHT22;31160;49.500;7.772;2023-04-07T02:10:28;7.30;99.90
13794;DHT22;31160;49.500;7.772;2023-04-07T02:12:59;7.20;99.90
13794;DHT22;31160;49.500;7.772;2023-04-07T02:15:27;7.10;99.90
13794;DHT22;31160;49.500;7.772;2023-04-07T02:17:58;7.00;99.90
13794;DHT22;31160;49.500;7.772;2023-04-07T02:20:26;7.00;99.90
13794;DHT22;31160;49.500;7.772;2023-04-07T02:22:53;6.90;99.90
13794;DHT22;31160;49.500;7.772;2023-04-07T02:25:25;6.80;99.90
13794;DHT22;31160;49.500;7.772;2023-04-07T02:27:53;6.70;99.90
13794;DHT22;31160;49.500;7.772;2023-04-07T02:30:21;6.60;99.90
13794;DHT22;31160;49.500;7.772;2023-04-07T02:32:49;6.60;99.90
13794;DHT22;31160;49.500;7.772;2023-04-07T02:35:16;6.50;99.90
13794;DHT22;31160;49.500;7.772;2023-04-07T02:37:44;6.50;99.90
13794;DHT22;31160;49.500;7.772;2023-04-07T02:40:12;6.50;99.90
13794;DHT22;31160;49.500;7.772;2023-04-07T02:42:39;6.50;99.90
13794;DHT22;31160;49.500;7.772;2023-04-07T02:45:07;6.40;99.90
13794;DHT22;31160;49.500;7.772;2023-04-07T02:47:36;6.40;99.90
13794;DHT22;31160;49.500;7.772;2023-04-07T02:50:04;6.40;99.90
13794;DHT22;31160;49.500;7.772;2023-04-07T02:52:34;6.30;99.90
13794;DHT22;31160;49.500;7.772;2023-04-07T02:55:04;6.40;99.90
13794;DHT22;31160;49.500;7.772;2023-04-07T02:57:31;6.40;99.90
13794;DHT22;31160;49.500;7.772;2023-04-07T03:00:01;6.30;99.90
13794;DHT22;31160;49.500;7.772;2023-04-07T03:02:43;6.20;99.90
13794;DHT22;31160;49.500;7.772;2023-04-07T03:05:10;6.20;99.90
13794;DHT22;31160;49.500;7.772;2023-04-07T03:07:37;6.10;99.90
13794;DHT22;31160;49.500;7.772;2023-04-07T03:10:04;6.30;99.90
13794;DHT22;31160;49.500;7.772;2023-04-07T03:12:32;6.30;99.90
13794;DHT22;31160;49.500;7.772;2023-04-07T03:14:58;6.40;99.90
13794;DHT22;31160;49.500;7.772;2023-04-07T03:17:25;6.40;99.90
13794;DHT22;31160;49.500;7.772;2023-04-07T03:19:52;6.50;99.90
13794;DHT22;31160;49.500;7.772;2023-04-07T03:22:19;6.40;99.90
13794;DHT22;31160;49.500;7.772;2023-04-07T03:24:50;6.40;99.90
13794;DHT22;31160;49.500;7.772;2023-04-07T03:27:19;6.40;99.90
13794;DHT22;31160;49.500;7.772;2023-04-07T03:29:47;6.50;99.90
13794;DHT22;31160;49.500;7.772;2023-04-07T03:32:15;6.50;99.90
13794;DHT22;31160;49.500;7.772;2023-04-07T03:34:42;6.60;99.90
13794;DHT22;31160;49.500;7.772;2023-04-07T03:37:09;6.50;99.90
13794;DHT22;31160;49.500;7.772;2023-04-07T03:39:37;6.50;99.90
13794;DHT22;31160;49.500;7.772;2023-04-07T03:42:17;6.40;99.90
13794;DHT22;31160;49.500;7.772;2023-04-07T03:44:44;6.30;99.90
13794;DHT22;31160;49.500;7.772;2023-04-07T03:47:12;6.30;99.90
13794;DHT22;31160;49.500;7.772;2023-04-07T03:49:39;6.20;99.90
13794;DHT22;31160;49.500;7.772;2023-04-07T03:52:06;6.10;99.90
13794;DHT22;31160;49.500;7.772;2023-04-07T03:54:33;6.00;99.90
13794;DHT22;31160;49.500;7.772;2023-04-07T03:57:01;6.00;99.90
13794;DHT22;31160;49.500;7.772;2023-04-07T03:59:31;5.90;99.90
13794;DHT22;31160;49.500;7.772;2023-04-07T04:02:02;5.80;99.90
13794;DHT22;31160;49.500;7.772;2023-04-07T04:04:29;5.70;99.90
13794;DHT22;31160;49.500;7.772;2023-04-07T04:06:56;5.70;99.90
13794;DHT22;31160;49.500;7.772;2023-04-07T04:09:52;5.60;99.90
13794;DHT22;31160;49.500;7.772;2023-04-07T04:12:20;5.60;99.90
13794;DHT22;31160;49.500;7.772;2023-04-07T04:15:01;5.50;99.90
13794;DHT22;31160;49.500;7.772;2023-04-07T04:17:28;5.40;99.90
13794;DHT22;31160;49.500;7.772;2023-04-07T04:19:55;5.30;99.90
13794;DHT22;31160;49.500;7.772;2023-04-07T04:22:30;5.30;99.90
13794;DHT22;31160;49.500;7.772;2023-04-07T04:24:58;5.20;99.90
13794;DHT22;31160;49.500;7.772;2023-04-07T04:27:26;5.20;99.90
13794;DHT22;31160;49.500;7.772;2023-04-07T04:30:01;5.20;99.90
13794;DHT22;31160;49.500;7.772;2023-04-07T04:32:34;5.20;99.90
13794;DHT22;31160;49.500;7.772;2023-04-07T04:35:02;5.20;99.90
13794;DHT22;31160;49.500;7.772;2023-04-07T04:37:32;5.10;99.90
13794;DHT22;31160;49.500;7.772;2023-04-07T04:40:01;5.00;99.90
13794;DHT22;31160;49.500;7.772;2023-04-07T04:42:29;5.10;99.90
13794;DHT22;31160;49.500;7.772;2023-04-07T04:44:57;5.10;99.90
13794;DHT22;31160;49.500;7.772;2023-04-07T04:47:24;5.00;99.90
13794;DHT22;31160;49.500;7.772;2023-04-07T04:49:51;4.90;99.90
13794;DHT22;31160;49.500;7.772;2023-04-07T04:52:19;5.00;99.90
13794;DHT22;31160;49.500;7.772;2023-04-07T04:54:48;5.20;99.90
13794;DHT22;31160;49.500;7.772;2023-04-07T04:57:15;5.20;99.90
13794;DHT22;31160;49.500;7.772;2023-04-07T04:59:42;5.30;99.90
13794;DHT22;31160;49.500;7.772;2023-04-07T05:02:09;5.30;99.90
13794;DHT22;31160;49.500;7.772;2023-04-07T05:04:36;5.40;99.90
13794;DHT22;31160;49.500;7.772;2023-04-07T05:07:17;5.40;99.90
13794;DHT22;31160;49.500;7.772;2023-04-07T05:09:44;5.50;99.90
13794;DHT22;31160;49.500;7.772;2023-04-07T05:12:11;5.60;99.90
13794;DHT22;31160;49.500;7.772;2023-04-07T05:14:43;5.60;99.90
13794;DHT22;31160;49.500;7.772;2023-04-07T05:17:10;5.70;99.90
13794;DHT22;31160;49.500;7.772;2023-04-07T05:19:37;5.60;99.90
13794;DHT22;31160;49.500;7.772;2023-04-07T05:22:11;5.70;99.90
13794;DHT22;31160;49.500;7.772;2023-04-07T05:24:44;5.70;99.90
13794;DHT22;31160;49.500;7.772;2023-04-07T05:27:10;5.80;99.90
13794;DHT22;31160;49.500;7.772;2023-04-07T05:29:38;5.80;99.90
13794;DHT22;31160;49.500;7.772;2023-04-07T05:32:08;5.80;99.90
13794;DHT22;31160;49.500;7.772;2023-04-07T05:34:35;5.90;99.90
13794;DHT22;31160;49.500;7.772;2023-04-07T05:37:02;5.90;99.90
13794;DHT22;31160;49.500;7.772;2023-04-07T05:39:29;5.90;99.90
13794;DHT22;31160;49.500;7.772;2023-04-07T05:41:57;6.00;99.90
13794;DHT22;31160;49.500;7.772;2023-04-07T05:44:25;6.20;99.90
13794;DHT22;31160;49.500;7.772;2023-04-07T05:46:53;6.20;99.90
13794;DHT22;31160;49.500;7.772;2023-04-07T05:49:21;6.20;99.90
13794;DHT22;31160;49.500;7.772;2023-04-07T05:51:56;6.20;99.90
13794;DHT22;31160;49.500;7.772;2023-04-07T05:54:23;6.30;99.90
13794;DHT22;31160;49.500;7.772;2023-04-07T05:56:51;6.30;99.90
13794;DHT22;31160;49.500;7.772;2023-04-07T05:59:19;6.30;99.90
13794;DHT22;31160;49.500;7.772;2023-04-07T06:01:46;6.30;99.90
13794;DHT22;31160;49.500;7.772;2023-04-07T06:04:13;6.40;99.90
13794;DHT22;31160;49.500;7.772;2023-04-07T06:06:40;6.30;99.90
13794;DHT22;31160;49.500;7.772;2023-04-07T06:09:06;6.30;99.90
13794;DHT22;31160;49.500;7.772;2023-04-07T06:11:34;6.40;99.90
13794;DHT22;31160;49.500;7.772;2023-04-07T06:14:00;6.50;99.90
13794;DHT22;31160;49.500;7.772;2023-04-07T06:16:27;6.50;99.90
13794;DHT22;31160;49.500;7.772;2023-04-07T06:18:54;6.50;99.90
13794;DHT22;31160;49.500;7.772;2023-04-07T06:21:21;6.60;99.90
13794;DHT22;31160;49.500;7.772;2023-04-07T06:23:47;6.70;99.90
13794;DHT22;31160;49.500;7.772;2023-04-07T06:26:14;6.80;99.90
13794;DHT22;31160;49.500;7.772;2023-04-07T06:28:41;6.90;99.90
13794;DHT22;31160;49.500;7.772;2023-04-07T06:31:08;6.90;99.90
13794;DHT22;31160;49.500;7.772;2023-04-07T06:33:36;7.00;99.90
13794;DHT22;31160;49.500;7.772;2023-04-07T06:36:03;7.00;99.90
13794;DHT22;31160;49.500;7.772;2023-04-07T06:38:30;7.00;99.90
13794;DHT22;31160;49.500;7.772;2023-04-07T06:40:57;7.10;99.90
13794;DHT22;31160;49.500;7.772;2023-04-07T06:43:24;7.20;99.90
13794;DHT22;31160;49.500;7.772;2023-04-07T06:45:58;7.30;99.90
13794;DHT22;31160;49.500;7.772;2023-04-07T06:48:25;7.40;99.90
13794;DHT22;31160;49.500;7.772;2023-04-07T06:50:52;7.50;99.90
13794;DHT22;31160;49.500;7.772;2023-04-07T06:53:18;7.60;99.90
13794;DHT22;31160;49.500;7.772;2023-04-07T06:55:45;7.90;99.90
13794;DHT22;31160;49.500;7.772;2023-04-07T06:58:12;8.10;99.90
13794;DHT22;31160;49.500;7.772;2023-04-07T07:00:38;8.20;99.90
13794;DHT22;31160;49.500;7.772;2023-04-07T07:03:05;8.30;99.90
13794;DHT22;31160;49.500;7.772;2023-04-07T07:05:32;8.30;99.90
13794;DHT22;31160;49.500;7.772;2023-04-07T07:07:59;8.30;99.90
13794;DHT22;31160;49.500;7.772;2023-04-07T07:10:25;8.30;99.90
13794;DHT22;31160;49.500;7.772;2023-04-07T07:12:52;8.40;99.90
13794;DHT22;31160;49.500;7.772;2023-04-07T07:15:19;8.60;99.90
13794;DHT22;31160;49.500;7.772;2023-04-07T07:17:46;8.70;99.90
13794;DHT22;31160;49.500;7.772;2023-04-07T07:20:13;8.80;99.90
13794;DHT22;31160;49.500;7.772;2023-04-07T07:22:39;8.90;99.90
13794;DHT22;31160;49.500;7.772;2023-04-07T07:25:07;9.10;99.90
13794;DHT22;31160;49.500;7.772;2023-04-07T07:27:33;9.20;99.90
13794;DHT22;31160;49.500;7.772;2023-04-07T07:30:00;9.20;99.90
13794;DHT22;31160;49.500;7.772;2023-04-07T07:32:27;9.00;99.90
13794;DHT22;31160;49.500;7.772;2023-04-07T07:34:54;9.20;99.90
13794;DHT22;31160;49.500;7.772;2023-04-07T07:37:20;9.40;99.90
13794;DHT22;31160;49.500;7.772;2023-04-07T07:39:47;9.70;99.90
13794;DHT22;31160;49.500;7.772;2023-04-07T07:42:15;10.00;99.90
13794;DHT22;31160;49.500;7.772;2023-04-07T07:44:41;10.20;99.90
13794;DHT22;31160;49.500;7.772;2023-04-07T07:47:08;10.30;99.90
13794;DHT22;31160;49.500;7.772;2023-04-07T07:49:35;9.80;99.90
13794;DHT22;31160;49.500;7.772;2023-04-07T07:52:01;9.90;99.90
13794;DHT22;31160;49.500;7.772;2023-04-07T07:54:28;10.30;99.90
13794;DHT22;31160;49.500;7.772;2023-04-07T07:56:55;10.60;99.90
13794;DHT22;31160;49.500;7.772;2023-04-07T07:59:22;11.00;99.90
13794;DHT22;31160;49.500;7.772;2023-04-07T08:01:49;11.20;99.90
13794;DHT22;31160;49.500;7.772;2023-04-07T08:04:16;11.40;99.90
13794;DHT22;31160;49.500;7.772;2023-04-07T08:06:43;11.70;99.90
13794;DHT22;31160;49.500;7.772;2023-04-07T08:09:10;11.70;99.90
13794;DHT22;31160;49.500;7.772;2023-04-07T08:11:36;12.10;99.90
13794;DHT22;31160;49.500;7.772;2023-04-07T08:14:03;12.20;99.90
13794;DHT22;31160;49.500;7.772;2023-04-07T08:16:30;12.30;99.90
13794;DHT22;31160;49.500;7.772;2023-04-07T08:18:57;12.60;99.90
13794;DHT22;31160;49.500;7.772;2023-04-07T08:21:23;12.70;99.90
13794;DHT22;31160;49.500;7.772;2023-04-07T08:23:55;12.80;99.90
13794;DHT22;31160;49.500;7.772;2023-04-07T08:26:21;12.50;99.90
13794;DHT22;31160;49.500;7.772;2023-04-07T08:28:49;12.40;99.90
13794;DHT22;31160;49.500;7.772;2023-04-07T08:31:18;12.40;99.90
13794;DHT22;31160;49.500;7.772;2023-04-07T08:33:45;12.30;99.90
13794;DHT22;31160;49.500;7.772;2023-04-07T08:36:13;12.20;99.90
13794;DHT22;31160;49.500;7.772;2023-04-07T08:38:40;12.10;99.90
13794;DHT22;31160;49.500;7.772;2023-04-07T08:41:10;12.00;99.90
13794;DHT22;31160;49.500;7.772;2023-04-07T08:43:38;11.80;99.90
13794;DHT22;31160;49.500;7.772;2023-04-07T08:46:05;11.80;99.90
13794;DHT22;31160;49.500;7.772;2023-04-07T08:48:37;11.80;99.90
13794;DHT22;31160;49.500;7.772;2023-04-07T08:51:05;11.50;99.90
13794;DHT22;31160;49.500;7.772;2023-04-07T08:53:49;11.70;99.90
13794;DHT22;31160;49.500;7.772;2023-04-07T08:56:17;11.90;99.90
13794;DHT22;31160;49.500;7.772;2023-04-07T08:58:47;12.00;99.90
13794;DHT22;31160;49.500;7.772;2023-04-07T09:01:15;12.00;99.90
13794;DHT22;31160;49.500;7.772;2023-04-07T09:03:44;11.90;99.90
13794;DHT22;31160;49.500;7.772;2023-04-07T09:06:12;11.90;99.90
13794;DHT22;31160;49.500;7.772;2023-04-07T09:08:39;11.80;99.90
13794;DHT22;31160;49.500;7.772;2023-04-07T09:11:06;11.70;99.90
13794;DHT22;31160;49.500;7.772;2023-04-07T09:13:33;11.50;99.90
13794;DHT22;31160;49.500;7.772;2023-04-07T09:16:01;11.50;99.90
13794;DHT22;31160;49.500;7.772;2023-04-07T09:18:28;11.20;99.90
13794;DHT22;31160;49.500;7.772;2023-04-07T09:20:59;11.10;99.90
13794;DHT22;31160;49.500;7.772;2023-04-07T09:23:31;11.10;99.90
13794;DHT22;31160;49.500;7.772;2023-04-07T09:26:13;11.10;99.90
13794;DHT22;31160;49.500;7.772;2023-04-07T09:28:45;11.20;99.90
13794;DHT22;31160;49.500;7.772;2023-04-07T09:31:12;11.30;99.90
13794;DHT22;31160;49.500;7.772;2023-04-07T09:33:39;11.20;99.90
13794;DHT22;31160;49.500;7.772;2023-04-07T09:36:06;11.20;99.90
13794;DHT22;31160;49.500;7.772;2023-04-07T09:38:38;11.00;99.90
13794;DHT22;31160;49.500;7.772;2023-04-07T09:43:38;10.90;99.90
13794;DHT22;31160;49.500;7.772;2023-04-07T09:46:09;10.80;99.90
13794;DHT22;31160;49.500;7.772;2023-04-07T09:48:37;10.70;99.90
13794;DHT22;31160;49.500;7.772;2023-04-07T09:51:06;10.70;99.90
13794;DHT22;31160;49.500;7.772;2023-04-07T09:53:47;10.70;99.90
13794;DHT22;31160;49.500;7.772;2023-04-07T09:56:16;10.70;99.90
13794;DHT22;31160;49.500;7.772;2023-04-07T09:58:46;10.50;99.90
13794;DHT22;31160;49.500;7.772;2023-04-07T10:01:15;10.70;99.90
13794;DHT22;31160;49.500;7.772;2023-04-07T10:03:44;10.80;99.90
13794;DHT22;31160;49.500;7.772;2023-04-07T10:06:12;10.90;99.90
13794;DHT22;31160;49.500;7.772;2023-04-07T10:08:41;10.80;99.90
13794;DHT22;31160;49.500;7.772;2023-04-07T10:11:08;10.90;99.90
13794;DHT22;31160;49.500;7.772;2023-04-07T10:13:38;10.90;99.90
13794;DHT22;31160;49.500;7.772;2023-04-07T10:16:06;11.10;99.90
13794;DHT22;31160;49.500;7.772;2023-04-07T10:18:35;11.10;99.90
13794;DHT22;31160;49.500;7.772;2023-04-07T10:21:04;11.20;99.90
13794;DHT22;31160;49.500;7.772;2023-04-07T10:26:22;11.30;99.90
13794;DHT22;31160;49.500;7.772;2023-04-07T10:28:57;11.30;99.90
13794;DHT22;31160;49.500;7.772;2023-04-07T10:31:25;11.40;99.90
13794;DHT22;31160;49.500;7.772;2023-04-07T10:33:53;11.40;99.90
13794;DHT22;31160;49.500;7.772;2023-04-07T10:36:21;11.40;99.90
13794;DHT22;31160;49.500;7.772;2023-04-07T10:41:40;11.50;99.90
13794;DHT22;31160;49.500;7.772;2023-04-07T10:44:08;11.50;99.90
13794;DHT22;31160;49.500;7.772;2023-04-07T10:49:11;11.50;99.90
13794;DHT22;31160;49.500;7.772;2023-04-07T10:51:39;11.40;99.90
13794;DHT22;31160;49.500;7.772;2023-04-07T10:54:19;11.40;99.90
13794;DHT22;31160;49.500;7.772;2023-04-07T10:59:29;11.20;99.90
13794;DHT22;31160;49.500;7.772;2023-04-07T11:04:39;11.10;99.90
13794;DHT22;31160;49.500;7.772;2023-04-07T11:07:06;11.20;99.90
13794;DHT22;31160;49.500;7.772;2023-04-07T11:09:33;11.00;99.90
13794;DHT22;31160;49.500;7.772;2023-04-07T11:12:00;11.00;99.90
13794;DHT22;31160;49.500;7.772;2023-04-07T11:14:27;11.10;99.90
13794;DHT22;31160;49.500;7.772;2023-04-07T11:16:55;11.10;99.90
13794;DHT22;31160;49.500;7.772;2023-04-07T11:19:22;11.10;99.90
13794;DHT22;31160;49.500;7.772;2023-04-07T11:21:49;11.20;99.90
13794;DHT22;31160;49.500;7.772;2023-04-07T11:24:35;11.20;99.90
13794;DHT22;31160;49.500;7.772;2023-04-07T11:27:05;11.30;99.90
13794;DHT22;31160;49.500;7.772;2023-04-07T11:29:33;11.30;99.90
13794;DHT22;31160;49.500;7.772;2023-04-07T11:32:01;11.30;99.90
13794;DHT22;31160;49.500;7.772;2023-04-07T11:34:32;11.30;99.90
13794;DHT22;31160;49.500;7.772;2023-04-07T11:37:21;11.30;99.90
13794;DHT22;31160;49.500;7.772;2023-04-07T11:39:55;11.30;99.90
13794;DHT22;31160;49.500;7.772;2023-04-07T11:42:36;11.30;99.90
13794;DHT22;31160;49.500;7.772;2023-04-07T11:45:04;11.20;99.90
13794;DHT22;31160;49.500;7.772;2023-04-07T11:47:38;11.20;99.90
13794;DHT22;31160;49.500;7.772;2023-04-07T11:50:06;11.10;99.90
13794;DHT22;31160;49.500;7.772;2023-04-07T11:52:47;11.10;99.90
13794;DHT22;31160;49.500;7.772;2023-04-07T11:55:21;11.00;99.90
13794;DHT22;31160;49.500;7.772;2023-04-07T11:57:50;10.90;99.90
13794;DHT22;31160;49.500;7.772;2023-04-07T12:00:18;10.80;99.90
13794;DHT22;31160;49.500;7.772;2023-04-07T12:02:45;10.80;99.90
13794;DHT22;31160;49.500;7.772;2023-04-07T12:05:13;10.70;99.90
13794;DHT22;31160;49.500;7.772;2023-04-07T12:07:51;10.60;99.90
13794;DHT22;31160;49.500;7.772;2023-04-07T12:10:19;10.70;99.90
13794;DHT22;31160;49.500;7.772;2023-04-07T12:12:46;10.80;99.90
13794;DHT22;31160;49.500;7.772;2023-04-07T12:15:13;10.90;99.90
13794;DHT22;31160;49.500;7.772;2023-04-07T12:17:45;11.00;99.90
13794;DHT22;31160;49.500;7.772;2023-04-07T12:20:13;11.10;99.90
13794;DHT22;31160;49.500;7.772;2023-04-07T12:22:41;11.10;99.90
13794;DHT22;31160;49.500;7.772;2023-04-07T12:25:08;11.30;99.90
13794;DHT22;31160;49.500;7.772;2023-04-07T12:27:34;11.50;99.90
13794;DHT22;31160;49.500;7.772;2023-04-07T12:30:09;11.80;99.90
13794;DHT22;31160;49.500;7.772;2023-04-07T12:32:36;12.10;99.90
13794;DHT22;31160;49.500;7.772;2023-04-07T12:35:05;12.40;99.90
13794;DHT22;31160;49.500;7.772;2023-04-07T12:37:31;12.60;99.90
13794;DHT22;31160;49.500;7.772;2023-04-07T12:39:58;12.70;99.90
13794;DHT22;31160;49.500;7.772;2023-04-07T12:42:25;12.90;99.90
13794;DHT22;31160;49.500;7.772;2023-04-07T12:44:53;12.70;99.90
13794;DHT22;31160;49.500;7.772;2023-04-07T12:47:19;12.50;99.90
13794;DHT22;31160;49.500;7.772;2023-04-07T12:49:46;12.80;99.90
13794;DHT22;31160;49.500;7.772;2023-04-07T12:52:15;12.90;99.90
13794;DHT22;31160;49.500;7.772;2023-04-07T12:54:42;13.10;99.90
13794;DHT22;31160;49.500;7.772;2023-04-07T12:57:10;13.10;99.90
13794;DHT22;31160;49.500;7.772;2023-04-07T12:59:37;12.90;99.90
13794;DHT22;31160;49.500;7.772;2023-04-07T13:02:04;13.00;99.90
13794;DHT22;31160;49.500;7.772;2023-04-07T13:04:31;13.10;99.90
13794;DHT22;31160;49.500;7.772;2023-04-07T13:06:58;13.20;99.90
13794;DHT22;31160;49.500;7.772;2023-04-07T13:09:26;13.30;99.90
13794;DHT22;31160;49.500;7.772;2023-04-07T13:11:53;13.20;99.90
13794;DHT22;31160;49.500;7.772;2023-04-07T13:14:19;13.20;99.90
13794;DHT22;31160;49.500;7.772;2023-04-07T13:16:46;12.90;99.90
13794;DHT22;31160;49.500;7.772;2023-04-07T13:19:13;12.80;99.90
13794;DHT22;31160;49.500;7.772;2023-04-07T13:21:40;12.70;99.90
13794;DHT22;31160;49.500;7.772;2023-04-07T13:24:13;12.60;99.90
13794;DHT22;31160;49.500;7.772;2023-04-07T13:26:40;12.70;99.90
13794;DHT22;31160;49.500;7.772;2023-04-07T13:29:07;12.80;99.90
13794;DHT22;31160;49.500;7.772;2023-04-07T13:31:34;12.80;99.90
13794;DHT22;31160;49.500;7.772;2023-04-07T13:34:00;13.10;99.90
13794;DHT22;31160;49.500;7.772;2023-04-07T13:36:27;13.20;99.90
13794;DHT22;31160;49.500;7.772;2023-04-07T13:38:54;13.30;99.90
13794;DHT22;31160;49.500;7.772;2023-04-07T13:41:22;13.40;99.90
13794;DHT22;31160;49.500;7.772;2023-04-07T13:43:49;13.40;99.90
13794;DHT22;31160;49.500;7.772;2023-04-07T13:46:16;13.30;99.90
13794;DHT22;31160;49.500;7.772;2023-04-07T13:48:55;13.40;99.90
13794;DHT22;31160;49.500;7.772;2023-04-07T13:51:22;13.60;99.90
13794;DHT22;31160;49.500;7.772;2023-04-07T13:53:48;13.70;99.90
13794;DHT22;31160;49.500;7.772;2023-04-07T13:56:16;13.80;99.90
13794;DHT22;31160;49.500;7.772;2023-04-07T13:58:42;13.80;99.90
13794;DHT22;31160;49.500;7.772;2023-04-07T14:01:09;14.10;99.90
13794;DHT22;31160;49.500;7.772;2023-04-07T14:03:36;14.10;99.90
13794;DHT22;31160;49.500;7.772;2023-04-07T14:06:04;14.40;99.90
13794;DHT22;31160;49.500;7.772;2023-04-07T14:08:31;14.70;99.90
13794;DHT22;31160;49.500;7.772;2023-04-07T14:10:57;14.80;99.90
13794;DHT22;31160;49.500;7.772;2023-04-07T14:13:24;14.30;99.90
13794;DHT22;31160;49.500;7.772;2023-04-07T14:15:51;14.50;99.90
13794;DHT22;31160;49.500;7.772;2023-04-07T14:18:19;14.40;99.90
13794;DHT22;31160;49.500;7.772;2023-04-07T14:20:46;14.20;99.90
13794;DHT22;31160;49.500;7.772;2023-04-07T14:23:13;13.50;99.90
13794;DHT22;31160;49.500;7.772;2023-04-07T14:25:48;13.40;99.90
13794;DHT22;31160;49.500;7.772;2023-04-07T14:28:15;12.90;99.90
13794;DHT22;31160;49.500;7.772;2023-04-07T14:30:42;12.90;99.90
13794;DHT22;31160;49.500;7.772;2023-04-07T14:33:09;12.80;99.90
13794;DHT22;31160;49.500;7.772;2023-04-07T14:35:36;12.80;99.90
13794;DHT22;31160;49.500;7.772;2023-04-07T14:38:03;12.40;99.90
13794;DHT22;31160;49.500;7.772;2023-04-07T14:40:30;11.90;99.90
13794;DHT22;31160;49.500;7.772;2023-04-07T14:42:57;11.70;99.90
13794;DHT22;31160;49.500;7.772;2023-04-07T14:45:27;11.60;99.90
13794;DHT22;31160;49.500;7.772;2023-04-07T14:47:54;11.30;99.90
13794;DHT22;31160;49.500;7.772;2023-04-07T14:50:22;11.60;99.90
13794;DHT22;31160;49.500;7.772;2023-04-07T14:52:49;11.80;99.90
13794;DHT22;31160;49.500;7.772;2023-04-07T14:55:16;11.70;99.90
13794;DHT22;31160;49.500;7.772;2023-04-07T14:57:44;11.70;99.90
13794;DHT22;31160;49.500;7.772;2023-04-07T15:00:11;11.90;99.90
13794;DHT22;31160;49.500;7.772;2023-04-07T15:02:38;12.20;99.90
13794;DHT22;31160;49.500;7.772;2023-04-07T15:05:06;12.30;99.90
13794;DHT22;31160;49.500;7.772;2023-04-07T15:07:33;12.10;99.90
13794;DHT22;31160;49.500;7.772;2023-04-07T15:10:00;11.50;99.90
13794;DHT22;31160;49.500;7.772;2023-04-07T15:12:26;11.40;99.90
13794;DHT22;31160;49.500;7.772;2023-04-07T15:14:55;12.00;99.90
13794;DHT22;31160;49.500;7.772;2023-04-07T15:17:22;12.00;99.90
13794;DHT22;31160;49.500;7.772;2023-04-07T15:20:06;11.90;99.90
13794;DHT22;31160;49.500;7.772;2023-04-07T15:22:34;11.80;99.90
13794;DHT22;31160;49.500;7.772;2023-04-07T15:25:01;11.90;99.90
13794;DHT22;31160;49.500;7.772;2023-04-07T15:27:29;12.10;99.90
13794;DHT22;31160;49.500;7.772;2023-04-07T15:29:55;11.90;99.90
13794;DHT22;31160;49.500;7.772;2023-04-07T15:32:22;11.70;99.90
13794;DHT22;31160;49.500;7.772;2023-04-07T15:34:49;11.90;99.90
13794;DHT22;31160;49.500;7.772;2023-04-07T15:37:16;11.90;99.90
13794;DHT22;31160;49.500;7.772;2023-04-07T15:39:44;12.00;99.90
13794;DHT22;31160;49.500;7.772;2023-04-07T15:42:10;12.10;99.90
13794;DHT22;31160;49.500;7.772;2023-04-07T15:44:38;12.10;99.90
13794;DHT22;31160;49.500;7.772;2023-04-07T15:47:05;12.20;99.90
13794;DHT22;31160;49.500;7.772;2023-04-07T15:49:33;11.60;99.90
13794;DHT22;31160;49.500;7.772;2023-04-07T15:52:06;11.60;99.90
13794;DHT22;31160;49.500;7.772;2023-04-07T15:54:32;11.40;99.90
13794;DHT22;31160;49.500;7.772;2023-04-07T15:57:00;11.60;99.90
13794;DHT22;31160;49.500;7.772;2023-04-07T15:59:27;11.50;99.90
13794;DHT22;31160;49.500;7.772;2023-04-07T16:01:56;11.50;99.90
13794;DHT22;31160;49.500;7.772;2023-04-07T16:04:23;11.40;99.90
13794;DHT22;31160;49.500;7.772;2023-04-07T16:06:50;11.30;99.90